Time;durP1;ratioP1;P1;durP2;ratioP2;P2;SDS_P1;SDS_P2;PMS_P1;PMS_P2;Temp;Humidity;BMP_temperature;BMP_pressure;BME280_temperature;BME280_humidity;BME280_pressure;Samples;Min_cycle;Max_cycle;Signal;HPM_P1;HPM_P2
2021/03/01 00:02:19;;;;;;;7.70;4.60;;;4.70;68.80;;;;;;5112045;28;20134;-80
2021/03/01 00:04:46;;;;;;;8.00;4.53;;;4.60;70.10;;;;;;5111813;28;20130;-80
2021/03/01 00:07:12;;;;;;;7.90;4.45;;;4.60;71.20;;;;;;5111354;28;20108;-81
2021/03/01 00:09:40;;;;;;;8.85;4.05;;;4.60;71.30;;;;;;5111477;28;20126;-82
2021/03/01 00:12:06;;;;;;;9.18;4.40;;;4.60;71.80;;;;;;5112219;28;20071;-81
2021/03/01 00:14:33;;;;;;;7.20;4.15;;;4.50;72.20;;;;;;5111337;28;20176;-80
2021/03/01 00:17:00;;;;;;;8.38;4.50;;;4.50;72.60;;;;;;5110912;28;20042;-81
2021/03/01 00:19:27;;;;;;;7.97;4.93;;;4.60;73.40;;;;;;5111786;28;20126;-81
2021/03/01 00:21:53;;;;;;;7.88;4.45;;;4.60;72.90;;;;;;5110839;28;20054;-80
2021/03/01 00:24:20;;;;;;;8.82;4.60;;;4.50;73.50;;;;;;5111129;28;20132;-80
2021/03/01 00:26:47;;;;;;;8.80;4.45;;;4.50;73.80;;;;;;5110887;28;20497;-79
2021/03/01 00:29:14;;;;;;;8.95;5.15;;;4.60;74.10;;;;;;5111133;28;20506;-79
2021/03/01 00:31:41;;;;;;;8.68;5.18;;;4.60;73.10;;;;;;5111914;28;20069;-79
2021/03/01 00:34:07;;;;;;;9.68;5.13;;;4.50;72.70;;;;;;5113430;28;20134;-80
2021/03/01 00:36:34;;;;;;;11.27;5.35;;;4.40;73.60;;;;;;5113414;28;20122;-79
2021/03/01 00:39:01;;;;;;;10.77;5.85;;;4.40;74.30;;;;;;5112585;28;20142;-80
2021/03/01 00:41:27;;;;;;;9.32;5.07;;;4.30;75.50;;;;;;5113300;28;20572;-80
2021/03/01 00:43:55;;;;;;;9.35;4.72;;;4.30;76.70;;;;;;5113239;28;20079;-80
2021/03/01 00:46:21;;;;;;;8.55;4.70;;;4.40;76.20;;;;;;5113265;28;20116;-80
2021/03/01 00:48:48;;;;;;;8.77;5.05;;;4.40;76.70;;;;;;5113594;28;20127;-80
2021/03/01 00:51:14;;;;;;;11.40;5.30;;;4.40;76.10;;;;;;5113092;28;20146;-81
2021/03/01 00:53:41;;;;;;;8.55;4.90;;;4.40;75.40;;;;;;5112710;28;20506;-81
2021/03/01 00:56:07;;;;;;;9.20;5.88;;;4.30;75.90;;;;;;5112710;28;20127;-81
2021/03/01 00:58:34;;;;;;;9.13;5.30;;;4.30;75.80;;;;;;5112995;28;20123;-81
2021/03/01 01:01:03;;;;;;;8.73;5.13;;;4.20;76.80;;;;;;5095291;28;20134;-80
2021/03/01 01:03:31;;;;;;;8.27;5.25;;;4.10;77.90;;;;;;5112751;28;20070;-81
2021/03/01 01:05:59;;;;;;;11.30;5.78;;;4.10;78.30;;;;;;5111834;28;20124;-80
2021/03/01 01:08:26;;;;;;;10.48;5.63;;;4.10;78.30;;;;;;5113290;28;20071;-79
2021/03/01 01:10:53;;;;;;;9.98;5.43;;;4.10;77.40;;;;;;5094201;28;20043;-79
2021/03/01 01:13:20;;;;;;;10.60;5.75;;;4.10;78.60;;;;;;5113043;28;20096;-79
2021/03/01 01:15:47;;;;;;;9.70;5.57;;;4.10;79.30;;;;;;5112668;28;20214;-79
2021/03/01 01:18:14;;;;;;;10.32;5.75;;;4.10;79.10;;;;;;5112925;28;20123;-79
2021/03/01 01:20:41;;;;;;;9.70;5.50;;;4.10;78.60;;;;;;5097214;28;20468;-80
2021/03/01 01:23:08;;;;;;;10.65;5.60;;;4.00;79.20;;;;;;5116427;28;20245;-79
2021/03/01 01:25:34;;;;;;;10.52;6.38;;;4.00;80.20;;;;;;5114809;28;20130;-80
2021/03/01 01:28:01;;;;;;;10.02;6.30;;;4.10;79.60;;;;;;5116161;28;20150;-80
2021/03/01 01:30:28;;;;;;;10.55;5.70;;;4.00;80.10;;;;;;5098342;28;20580;-80
2021/03/01 01:32:55;;;;;;;9.52;5.63;;;4.00;80.10;;;;;;5098146;28;20138;-80
2021/03/01 01:35:23;;;;;;;10.00;6.18;;;3.90;80.00;;;;;;5116390;28;20050;-82
2021/03/01 01:37:50;;;;;;;9.27;5.38;;;3.80;81.90;;;;;;5098484;28;20510;-81
2021/03/01 01:40:21;;;;;;;9.95;5.57;;;3.80;81.90;;;;;;5116172;28;20079;-81
2021/03/01 01:42:49;;;;;;;8.90;5.18;;;3.80;81.50;;;;;;5116661;28;20126;-81
2021/03/01 01:45:20;;;;;;;10.23;6.07;;;3.80;82.00;;;;;;5098612;28;20123;-81
2021/03/01 01:47:49;;;;;;;9.38;5.25;;;3.80;81.90;;;;;;5116548;28;20472;-79
2021/03/01 01:50:16;;;;;;;9.50;5.57;;;3.80;82.60;;;;;;5116583;28;20139;-81
2021/03/01 01:52:44;;;;;;;11.18;5.97;;;3.70;82.50;;;;;;5115903;28;20042;-81
2021/03/01 01:55:13;;;;;;;9.70;6.15;;;3.70;83.20;;;;;;5081628;28;20130;-80
2021/03/01 01:57:41;;;;;;;12.50;6.35;;;3.70;82.50;;;;;;5114787;28;20177;-81
2021/03/01 02:00:19;;;;;;;11.02;5.70;;;3.70;82.60;;;;;;5126504;27;20075;-81
2021/03/01 02:02:52;;;;;;;11.20;6.03;;;3.60;82.40;;;;;;5097766;28;20047;-80
2021/03/01 02:05:19;;;;;;;11.52;6.20;;;3.60;83.60;;;;;;5116487;28;20048;-81
2021/03/01 02:07:56;;;;;;;9.77;5.95;;;3.60;83.50;;;;;;5098280;28;20484;-80
2021/03/01 02:10:35;;;;;;;10.75;5.90;;;3.50;82.70;;;;;;5116047;28;20130;-79
2021/03/01 02:13:10;;;;;;;11.93;5.90;;;3.50;83.20;;;;;;5097880;28;20128;-80
2021/03/01 02:15:41;;;;;;;;;;;3.40;84.60;;;;;;5116062;28;20482;-80
2021/03/01 02:18:07;;;;;;;10.48;5.70;;;3.40;85.80;;;;;;5097974;28;20019;-81
2021/03/01 02:20:34;;;;;;;11.68;6.38;;;3.40;85.70;;;;;;5116172;28;20126;-80
2021/03/01 02:23:01;;;;;;;9.93;5.88;;;3.40;85.70;;;;;;5115232;28;20130;-80
2021/03/01 02:25:30;;;;;;;11.15;6.10;;;3.30;86.20;;;;;;5115732;28;20131;-80
2021/03/01 02:28:03;;;;;;;11.18;5.95;;;3.30;86.30;;;;;;5116116;27;20489;-80
2021/03/01 02:30:34;;;;;;;9.98;5.70;;;3.40;86.60;;;;;;5114038;28;20051;-81
2021/03/01 02:33:08;;;;;;;11.85;5.97;;;3.30;86.70;;;;;;5116310;28;20134;-81
2021/03/01 02:35:38;;;;;;;9.85;5.78;;;3.30;87.30;;;;;;5115435;28;20082;-81
2021/03/01 02:38:08;;;;;;;10.68;5.57;;;3.30;87.60;;;;;;5115074;28;20122;-80
2021/03/01 02:40:36;;;;;;;10.93;6.30;;;3.30;88.20;;;;;;5115624;28;20131;-80
2021/03/01 02:43:05;;;;;;;8.85;5.00;;;3.30;87.70;;;;;;5114870;28;20126;-81
2021/03/01 02:45:32;;;;;;;11.15;6.00;;;3.30;88.40;;;;;;5115771;28;20122;-80
2021/03/01 02:48:01;;;;;;;11.10;6.35;;;3.30;86.80;;;;;;5075860;28;20047;-80
2021/03/01 02:50:30;;;;;;;11.98;6.70;;;3.30;85.80;;;;;;5107153;28;20130;-80
2021/03/01 02:52:57;;;;;;;10.45;6.15;;;3.20;85.80;;;;;;5115885;28;20468;-81
2021/03/01 02:55:26;;;;;;;10.48;5.93;;;3.10;86.70;;;;;;5115652;28;20126;-81
2021/03/01 02:57:54;;;;;;;10.95;5.97;;;3.10;86.90;;;;;;5097392;28;20157;-80
2021/03/01 03:00:22;;;;;;;10.57;5.72;;;3.00;87.30;;;;;;5115291;28;20051;-81
2021/03/01 03:02:51;;;;;;;11.15;6.00;;;2.90;87.50;;;;;;5114623;28;20043;-81
2021/03/01 03:05:20;;;;;;;9.18;5.45;;;2.90;87.80;;;;;;5114652;28;20042;-81
2021/03/01 03:07:49;;;;;;;10.93;5.57;;;2.80;88.30;;;;;;5114919;28;20465;-81
2021/03/01 03:10:17;;;;;;;11.32;6.03;;;2.80;90.10;;;;;;5115394;28;20135;-81
2021/03/01 03:12:46;;;;;;;11.43;6.13;;;2.80;90.10;;;;;;5115562;28;20181;-81
2021/03/01 03:15:19;;;;;;;10.15;5.80;;;2.70;88.80;;;;;;5114870;28;20127;-81
2021/03/01 03:17:46;;;;;;;10.02;5.70;;;2.70;89.60;;;;;;5114259;28;20050;-80
2021/03/01 03:20:14;;;;;;;10.90;6.38;;;2.60;90.20;;;;;;5113449;28;20130;-80
2021/03/01 03:22:41;;;;;;;11.38;6.50;;;2.60;90.40;;;;;;5092695;28;20137;-80
2021/03/01 03:25:09;;;;;;;10.93;6.10;;;2.60;90.80;;;;;;5094599;28;20134;-80
2021/03/01 03:27:36;;;;;;;11.25;5.97;;;2.60;91.20;;;;;;5099596;28;20044;-80
2021/03/01 03:30:08;;;;;;;12.55;6.03;;;2.60;90.70;;;;;;5114533;28;20043;-80
2021/03/01 03:32:35;;;;;;;12.13;6.47;;;2.50;91.00;;;;;;5114735;28;20130;-81
2021/03/01 03:35:04;;;;;;;11.95;6.90;;;2.50;91.30;;;;;;5114315;28;20079;-81
2021/03/01 03:37:37;;;;;;;10.68;6.20;;;2.50;90.90;;;;;;5113733;28;20131;-80
2021/03/01 03:40:07;;;;;;;12.23;6.60;;;2.40;90.70;;;;;;5113826;28;20047;-80
2021/03/01 03:42:36;;;;;;;10.32;6.20;;;2.30;90.80;;;;;;5113558;28;20079;-80
2021/03/01 03:45:08;;;;;;;10.35;5.60;;;2.30;92.30;;;;;;5130417;27;20077;-80
2021/03/01 03:47:35;;;;;;;13.60;6.50;;;2.30;92.90;;;;;;5095370;28;20134;-80
2021/03/01 03:50:05;;;;;;;12.45;5.93;;;2.30;93.20;;;;;;5113549;28;20048;-79
2021/03/01 03:52:34;;;;;;;11.48;6.93;;;2.30;93.40;;;;;;5112063;27;20059;-80
2021/03/01 03:55:04;;;;;;;12.02;6.40;;;2.30;93.30;;;;;;5113381;28;20088;-80
2021/03/01 03:57:38;;;;;;;14.27;7.18;;;2.40;93.50;;;;;;5097577;28;20122;-81
2021/03/01 04:00:13;;;;;;;13.32;6.30;;;2.40;93.60;;;;;;5096379;28;20134;-79
2021/03/01 04:02:42;;;;;;;9.98;5.53;;;2.40;93.60;;;;;;5095075;28;20127;-79
2021/03/01 04:05:12;;;;;;;11.63;6.88;;;2.40;94.10;;;;;;5111452;28;20054;-78
2021/03/01 04:07:41;;;;;;;12.20;6.50;;;2.40;93.50;;;;;;5111871;28;20046;-79
2021/03/01 04:10:10;;;;;;;13.52;6.07;;;2.40;93.10;;;;;;5112158;28;20559;-80
2021/03/01 04:12:39;;;;;;;11.60;6.53;;;2.40;93.20;;;;;;5094548;28;20536;-80
2021/03/01 04:15:13;;;;;;;10.90;6.40;;;2.40;93.50;;;;;;5111499;28;20465;-80
2021/03/01 04:17:42;;;;;;;11.27;6.05;;;2.40;93.50;;;;;;5120854;27;20065;-80
2021/03/01 04:20:11;;;;;;;12.77;6.32;;;2.50;93.40;;;;;;5091932;28;20055;-78
2021/03/01 04:22:41;;;;;;;12.65;6.57;;;2.50;92.90;;;;;;5074530;28;20044;-81
2021/03/01 04:25:09;;;;;;;11.05;5.88;;;2.40;92.80;;;;;;5110703;28;20496;-80
2021/03/01 04:27:38;;;;;;;10.07;5.85;;;2.40;92.80;;;;;;5121567;27;20138;-81
2021/03/01 04:30:09;;;;;;;12.15;6.93;;;2.40;92.90;;;;;;5094639;28;20087;-80
2021/03/01 04:32:38;;;;;;;11.73;6.38;;;2.40;92.60;;;;;;5112074;28;20075;-82
2021/03/01 04:35:08;;;;;;;10.88;5.55;;;2.40;92.80;;;;;;5112251;28;20130;-80
2021/03/01 04:37:35;;;;;;;12.18;6.07;;;2.40;92.90;;;;;;5110472;28;20062;-81
2021/03/01 04:40:03;;;;;;;12.02;6.28;;;2.40;92.80;;;;;;5112041;28;20130;-80
2021/03/01 04:42:32;;;;;;;10.30;5.95;;;2.40;92.90;;;;;;5111611;28;20046;-80
2021/03/01 04:45:00;;;;;;;11.23;5.90;;;2.40;92.70;;;;;;5092870;28;20051;-77
2021/03/01 04:47:29;;;;;;;10.30;5.85;;;2.50;92.60;;;;;;5110797;28;20408;-77
2021/03/01 04:49:56;;;;;;;9.65;5.90;;;2.40;92.70;;;;;;5111060;28;20545;-77
2021/03/01 04:52:23;;;;;;;12.15;6.72;;;2.40;92.30;;;;;;5110701;28;20134;-76
2021/03/01 04:54:50;;;;;;;10.88;5.88;;;2.40;92.10;;;;;;5109717;28;20134;-76
2021/03/01 04:57:18;;;;;;;10.93;6.22;;;2.40;92.30;;;;;;5110922;28;20560;-75
2021/03/01 04:59:46;;;;;;;11.32;6.63;;;2.40;92.10;;;;;;5110614;28;20063;-77
2021/03/01 05:02:14;;;;;;;10.55;5.68;;;2.40;91.60;;;;;;5112349;28;20075;-77
2021/03/01 05:04:42;;;;;;;12.35;6.70;;;2.30;91.60;;;;;;5129260;28;20378;-76
2021/03/01 05:07:09;;;;;;;10.05;5.70;;;2.30;91.60;;;;;;5113224;28;20556;-76
2021/03/01 05:09:36;;;;;;;12.48;6.50;;;2.20;91.80;;;;;;5112423;28;20126;-77
2021/03/01 05:12:03;;;;;;;9.30;6.15;;;2.20;92.20;;;;;;5112824;28;20393;-77
2021/03/01 05:14:30;;;;;;;10.45;5.97;;;2.20;92.00;;;;;;5113305;28;20130;-82
2021/03/01 05:16:57;;;;;;;11.20;6.05;;;2.20;91.70;;;;;;5113704;28;20190;-80
2021/03/01 05:19:23;;;;;;;9.63;5.90;;;2.20;91.90;;;;;;5112518;28;20185;-80
2021/03/01 05:21:51;;;;;;;11.20;5.82;;;2.10;91.80;;;;;;5112652;28;20137;-76
2021/03/01 05:24:18;;;;;;;10.73;6.20;;;2.00;91.90;;;;;;5112017;28;20592;-76
2021/03/01 05:26:44;;;;;;;11.00;6.38;;;2.00;91.90;;;;;;5113222;28;20048;-78
2021/03/01 05:29:11;;;;;;;10.68;6.10;;;1.90;92.30;;;;;;5113038;28;20127;-78
2021/03/01 05:31:37;;;;;;;13.13;6.10;;;1.90;92.10;;;;;;5111685;28;20123;-78
2021/03/01 05:34:04;;;;;;;11.98;5.78;;;1.90;92.00;;;;;;5110597;28;20126;-79
2021/03/01 05:36:30;;;;;;;11.30;6.25;;;1.90;92.00;;;;;;5111958;28;20043;-78
2021/03/01 05:38:58;;;;;;;12.65;6.45;;;1.90;91.40;;;;;;5112218;28;20047;-78
2021/03/01 05:41:26;;;;;;;10.68;5.85;;;1.80;91.40;;;;;;5112467;28;20047;-79
2021/03/01 05:43:53;;;;;;;10.77;5.70;;;1.60;91.50;;;;;;5112806;28;20039;-79
2021/03/01 05:46:21;;;;;;;11.25;6.45;;;1.50;91.70;;;;;;5111169;28;20477;-79
2021/03/01 05:48:47;;;;;;;10.07;5.63;;;1.40;92.10;;;;;;5112661;28;20046;-79
2021/03/01 05:51:15;;;;;;;13.13;6.97;;;1.40;92.50;;;;;;5112428;28;20415;-79
2021/03/01 05:53:44;;;;;;;12.68;7.13;;;1.30;92.60;;;;;;5111773;28;20134;-79
2021/03/01 05:56:13;;;;;;;13.73;7.10;;;1.30;92.30;;;;;;5112031;28;20140;-79
2021/03/01 05:58:41;;;;;;;13.57;7.07;;;1.20;92.80;;;;;;5094141;28;20135;-79
2021/03/01 06:01:08;;;;;;;11.50;6.57;;;1.10;93.20;;;;;;5112171;28;20126;-79
2021/03/01 06:03:36;;;;;;;13.40;6.70;;;1.10;94.10;;;;;;5112943;28;20139;-79
2021/03/01 06:06:03;;;;;;;10.43;6.00;;;1.00;94.60;;;;;;5113614;28;20068;-79
2021/03/01 06:08:31;;;;;;;11.40;6.07;;;1.00;95.20;;;;;;5098248;28;20471;-79
2021/03/01 06:10:58;;;;;;;12.00;6.05;;;1.00;95.40;;;;;;5115495;28;20050;-79
2021/03/01 06:13:26;;;;;;;9.82;5.43;;;1.00;95.50;;;;;;5116317;28;20134;-78
2021/03/01 06:15:54;;;;;;;11.15;6.07;;;1.10;95.70;;;;;;5115937;28;20138;-78
2021/03/01 06:18:22;;;;;;;11.00;5.95;;;1.10;96.00;;;;;;5116088;28;20100;-78
2021/03/01 06:20:48;;;;;;;11.98;6.60;;;1.20;96.30;;;;;;5097794;28;20103;-78
2021/03/01 06:23:30;;;;;;;12.73;6.68;;;1.30;96.40;;;;;;5118233;28;20043;-78
2021/03/01 06:26:24;;;;;;;12.02;5.88;;;1.40;95.80;;;;;;5117727;28;20138;-78
2021/03/01 06:28:53;;;;;;;11.13;6.22;;;1.40;95.60;;;;;;5114686;28;20048;-79
2021/03/01 06:31:41;;;;;;;12.27;5.93;;;1.50;95.20;;;;;;5114885;28;20122;-81
2021/03/01 06:34:19;;;;;;;10.48;5.95;;;1.50;95.10;;;;;;5114866;28;20131;-78
2021/03/01 06:37:07;;;;;;;10.77;6.05;;;1.50;95.60;;;;;;5115755;28;20119;-79
2021/03/01 06:39:38;;;;;;;10.95;6.65;;;1.50;95.20;;;;;;5114735;28;20052;-78
2021/03/01 06:42:26;;;;;;;11.90;6.88;;;1.60;95.10;;;;;;5097946;28;20131;-78
2021/03/01 06:45:15;;;;;;;10.52;6.20;;;1.60;94.50;;;;;;5114883;28;20086;-79
2021/03/01 06:47:51;;;;;;;12.20;6.90;;;1.60;94.10;;;;;;5101133;28;20039;-79
2021/03/01 06:50:30;;;;;;;12.73;7.18;;;1.60;94.10;;;;;;5116014;28;20086;-78
2021/03/01 06:52:57;;;;;;;13.07;6.78;;;1.60;94.30;;;;;;5097886;28;20480;-79
2021/03/01 06:55:24;;;;;;;11.73;6.60;;;1.60;94.00;;;;;;5115358;28;20126;-79
2021/03/01 06:57:51;;;;;;;11.98;6.38;;;1.50;94.10;;;;;;5126666;27;20101;-78
2021/03/01 07:00:27;;;;;;;12.13;6.45;;;1.60;94.60;;;;;;5077350;28;20058;-78
2021/03/01 07:02:55;;;;;;;10.70;6.30;;;1.60;94.70;;;;;;5125942;27;20134;-78
2021/03/01 07:05:23;;;;;;;11.90;7.13;;;1.50;94.70;;;;;;5096607;28;20130;-79
2021/03/01 07:07:50;;;;;;;13.57;6.82;;;1.60;94.60;;;;;;5115260;28;20088;-79
2021/03/01 07:10:16;;;;;;;11.20;6.45;;;1.60;94.30;;;;;;5096983;28;20130;-78
2021/03/01 07:12:48;;;;;;;11.13;6.47;;;1.60;94.40;;;;;;5096715;28;20101;-78
2021/03/01 07:15:16;;;;;;;12.05;6.65;;;1.50;94.50;;;;;;5115969;28;20112;-78
2021/03/01 07:17:46;;;;;;;10.27;6.10;;;1.60;94.70;;;;;;5115298;28;20472;-78
2021/03/01 07:20:15;;;;;;;10.93;5.93;;;1.60;94.70;;;;;;5114957;28;20507;-78
2021/03/01 07:22:44;;;;;;;13.18;6.50;;;1.60;95.10;;;;;;5115022;28;20056;-78
2021/03/01 07:25:14;;;;;;;11.25;6.63;;;1.70;95.30;;;;;;5114673;28;20094;-78
2021/03/01 07:27:43;;;;;;;10.98;6.45;;;1.80;95.10;;;;;;5114567;27;20043;-78
2021/03/01 07:30:12;;;;;;;12.13;6.60;;;1.80;95.10;;;;;;5114975;28;20135;-78
2021/03/01 07:32:41;;;;;;;11.90;6.50;;;1.90;95.10;;;;;;5113681;28;20126;-78
2021/03/01 07:35:12;;;;;;;11.38;6.10;;;2.00;95.20;;;;;;5114716;28;20089;-78
2021/03/01 07:37:38;;;;;;;9.82;5.82;;;2.00;95.30;;;;;;5097035;28;20097;-78
2021/03/01 07:40:08;;;;;;;11.07;6.10;;;2.10;95.20;;;;;;5095488;28;20053;-78
2021/03/01 07:42:40;;;;;;;12.93;7.18;;;2.10;95.20;;;;;;5114466;28;20138;-78
2021/03/01 07:45:13;;;;;;;11.07;6.35;;;2.20;95.00;;;;;;5107143;28;20048;-78
2021/03/01 07:47:42;;;;;;;14.15;7.13;;;2.30;94.90;;;;;;5111463;27;20068;-78
2021/03/01 07:50:12;;;;;;;14.25;7.00;;;2.40;95.00;;;;;;5111416;28;20461;-78
2021/03/01 07:52:38;;;;;;;12.85;7.20;;;2.40;94.90;;;;;;5114806;28;20062;-78
2021/03/01 07:55:10;;;;;;;13.05;7.00;;;2.50;94.80;;;;;;5113475;28;20079;-78
2021/03/01 07:57:38;;;;;;;15.07;7.70;;;2.60;94.90;;;;;;5114049;28;20083;-79
2021/03/01 08:00:27;;;;;;;13.25;7.13;;;2.60;94.40;;;;;;5114144;28;20548;-78
2021/03/01 08:02:53;;;;;;;17.10;8.35;;;2.70;94.50;;;;;;5114654;28;20128;-78
2021/03/01 08:05:26;;;;;;;12.50;6.95;;;2.80;94.20;;;;;;5097631;28;20039;-79
2021/03/01 08:07:54;;;;;;;11.25;6.72;;;2.80;94.00;;;;;;5122588;28;20054;-78
2021/03/01 08:10:46;;;;;;;14.25;7.90;;;2.90;94.30;;;;;;5123577;28;20096;-79
2021/03/01 08:13:12;;;;;;;14.10;6.97;;;2.90;93.80;;;;;;5103873;28;20044;-79
2021/03/01 08:15:42;;;;;;;11.52;6.80;;;2.90;93.60;;;;;;5114423;28;20057;-78
2021/03/01 08:18:11;;;;;;;12.60;7.07;;;2.90;93.70;;;;;;5113408;27;20143;-79
2021/03/01 08:20:56;;;;;;;12.30;6.75;;;2.90;93.80;;;;;;5113925;28;20139;-78
2021/03/01 08:23:33;;;;;;;12.70;7.38;;;2.90;94.30;;;;;;5114109;28;20053;-80
2021/03/01 08:26:02;;;;;;;13.50;7.38;;;3.00;94.10;;;;;;5114055;28;20043;-81
2021/03/01 08:28:49;;;;;;;12.32;6.80;;;3.10;94.00;;;;;;5114094;28;20413;-80
2021/03/01 08:31:40;;;;;;;14.05;7.28;;;3.20;94.40;;;;;;5114381;28;20040;-80
2021/03/01 08:34:43;;;;;;;13.52;6.95;;;3.20;94.30;;;;;;5114410;28;20049;-79
2021/03/01 08:37:10;;;;;;;13.10;6.67;;;3.20;94.80;;;;;;5113777;28;20058;-80
2021/03/01 08:40:01;;;;;;;12.88;6.95;;;3.30;94.70;;;;;;5130176;27;20139;-82
2021/03/01 08:42:54;;;;;;;13.10;7.20;;;3.40;94.80;;;;;;5114118;28;20499;-78
2021/03/01 08:45:41;;;;;;;11.60;6.95;;;3.50;94.60;;;;;;5114007;28;20055;-81
2021/03/01 08:48:16;;;;;;;14.13;7.25;;;3.60;94.40;;;;;;5113790;28;20089;-81
2021/03/01 08:50:43;;;;;;;11.93;6.88;;;3.80;94.10;;;;;;5113359;28;20043;-81
2021/03/01 08:53:19;;;;;;;12.77;7.35;;;3.80;94.10;;;;;;5096218;28;20130;-81
2021/03/01 08:55:46;;;;;;;13.05;6.80;;;3.90;93.80;;;;;;5112761;28;20048;-81
2021/03/01 08:58:19;;;;;;;11.18;6.22;;;4.00;93.90;;;;;;5113365;28;20062;-81
2021/03/01 09:00:52;;;;;;;11.27;6.32;;;4.10;93.80;;;;;;5113444;28;20443;-80
2021/03/01 09:03:31;;;;;;;12.27;6.50;;;4.20;93.70;;;;;;5113383;28;20054;-80
2021/03/01 09:06:09;;;;;;;11.93;6.47;;;4.30;93.70;;;;;;5102654;28;20060;-81
2021/03/01 09:08:39;;;;;;;12.40;6.90;;;4.40;93.50;;;;;;5077219;28;20044;-81
2021/03/01 09:11:13;;;;;;;11.18;6.55;;;4.50;93.50;;;;;;5112839;28;20485;-81
2021/03/01 09:13:40;;;;;;;11.65;6.78;;;4.50;93.30;;;;;;5093252;28;20047;-81
2021/03/01 09:16:11;;;;;;;13.93;8.13;;;4.60;93.30;;;;;;5083366;28;20135;-81
2021/03/01 09:18:40;;;;;;;12.48;7.90;;;4.70;92.60;;;;;;5112243;28;20127;-81
2021/03/01 09:21:08;;;;;;;11.15;6.68;;;4.80;92.60;;;;;;5128586;28;20083;-81
2021/03/01 09:23:46;;;;;;;12.85;8.23;;;4.80;92.90;;;;;;5113203;28;20122;-81
2021/03/01 09:26:26;;;;;;;15.45;8.65;;;5.00;92.80;;;;;;5113638;28;20048;-81
2021/03/01 09:28:55;;;;;;;13.75;7.57;;;5.00;92.60;;;;;;5113398;28;20134;-81
2021/03/01 09:31:22;;;;;;;11.65;7.05;;;5.00;93.00;;;;;;5113196;28;20124;-81
2021/03/01 09:33:50;;;;;;;10.60;6.22;;;5.10;92.70;;;;;;5093663;28;20044;-81
2021/03/01 09:36:17;;;;;;;11.98;6.78;;;5.10;92.90;;;;;;5113296;28;20134;-81
2021/03/01 09:38:51;;;;;;;11.65;6.80;;;5.20;92.90;;;;;;5113509;28;20560;-81
2021/03/01 09:41:18;;;;;;;11.45;6.55;;;5.20;92.80;;;;;;5119494;28;20134;-81
2021/03/01 09:43:48;;;;;;;11.75;6.55;;;5.40;93.10;;;;;;5116894;28;20126;-81
2021/03/01 09:46:15;;;;;;;12.25;6.72;;;5.50;92.60;;;;;;5117373;28;20051;-81
2021/03/01 09:48:45;;;;;;;11.45;7.07;;;5.60;92.30;;;;;;5116666;28;20055;-81
2021/03/01 09:51:12;;;;;;;13.18;7.38;;;5.70;92.20;;;;;;5116995;28;20075;-81
2021/03/01 09:53:40;;;;;;;11.48;7.07;;;5.80;92.00;;;;;;5117002;28;20130;-81
2021/03/01 09:56:07;;;;;;;12.35;6.90;;;5.80;92.00;;;;;;5116995;28;20519;-81
2021/03/01 09:58:40;;;;;;;10.90;7.05;;;5.90;91.90;;;;;;5116607;28;20130;-81
2021/03/01 10:01:10;;;;;;;13.73;7.10;;;6.10;91.70;;;;;;5116681;28;20076;-81
2021/03/01 10:03:42;;;;;;;12.05;7.05;;;6.20;91.60;;;;;;5116582;28;20050;-80
2021/03/01 10:06:10;;;;;;;14.75;6.68;;;6.20;91.40;;;;;;5116738;28;20048;-81
2021/03/01 10:08:37;;;;;;;13.00;7.80;;;6.30;91.20;;;;;;5116847;28;20071;-81
2021/03/01 10:11:05;;;;;;;11.88;7.00;;;6.60;90.60;;;;;;5116973;28;20062;-81
2021/03/01 10:13:34;;;;;;;13.45;7.05;;;6.50;90.60;;;;;;5116917;28;20130;-81
2021/03/01 10:16:03;;;;;;;11.05;6.43;;;6.60;90.40;;;;;;5117907;28;20127;-82
2021/03/01 10:18:32;;;;;;;11.32;6.80;;;6.70;90.40;;;;;;5124643;28;20044;-82
2021/03/01 10:21:06;;;;;;;10.90;6.63;;;6.80;90.50;;;;;;5118111;28;20052;-81
2021/03/01 10:23:37;;;;;;;10.23;6.03;;;7.00;90.30;;;;;;5116743;28;20117;-81
2021/03/01 10:26:14;;;;;;;11.45;6.65;;;7.10;90.10;;;;;;5115938;28;20622;-81
2021/03/01 10:28:54;;;;;;;10.23;6.25;;;7.20;89.30;;;;;;5116538;28;20451;-80
2021/03/01 10:31:24;;;;;;;11.57;6.75;;;7.40;87.90;;;;;;5116428;28;20046;-80
2021/03/01 10:34:00;;;;;;;10.55;5.70;;;7.40;86.10;;;;;;5116409;28;20048;-80
2021/03/01 10:36:33;;;;;;;9.18;5.53;;;7.60;85.90;;;;;;5115537;28;20062;-80
2021/03/01 10:39:14;;;;;;;10.45;6.35;;;7.60;85.50;;;;;;5116002;28;20047;-80
2021/03/01 10:41:44;;;;;;;9.50;5.65;;;7.80;83.90;;;;;;5104469;28;20138;-80
2021/03/01 10:44:13;;;;;;;9.45;5.55;;;7.90;82.70;;;;;;5115618;28;20040;-81
2021/03/01 10:46:47;;;;;;;8.93;5.70;;;7.90;82.00;;;;;;5116057;28;20420;-80
2021/03/01 10:49:24;;;;;;;8.77;5.27;;;8.00;81.20;;;;;;5114688;28;20048;-80
2021/03/01 10:51:53;;;;;;;10.32;6.63;;;8.00;80.50;;;;;;5097122;28;20081;-80
2021/03/01 10:54:20;;;;;;;12.00;6.65;;;8.10;79.50;;;;;;5097663;28;20490;-80
2021/03/01 10:56:48;;;;;;;11.32;5.72;;;8.30;77.70;;;;;;5115300;28;20052;-81
2021/03/01 10:59:16;;;;;;;11.07;6.25;;;8.30;77.80;;;;;;5115452;28;20071;-81
2021/03/01 11:01:46;;;;;;;14.38;5.78;;;8.40;77.10;;;;;;5115289;28;20079;-82
2021/03/01 11:04:16;;;;;;;9.38;5.20;;;8.50;76.30;;;;;;5115553;28;20131;-81
2021/03/01 11:06:45;;;;;;;9.13;5.45;;;8.60;76.10;;;;;;5115404;28;20134;-81
2021/03/01 11:09:12;;;;;;;8.57;4.75;;;8.60;75.60;;;;;;5097328;28;20083;-82
2021/03/01 11:11:40;;;;;;;8.05;5.18;;;8.70;75.10;;;;;;5114700;28;20457;-81
2021/03/01 11:14:08;;;;;;;7.38;4.43;;;8.80;74.20;;;;;;5113926;28;20374;-81
2021/03/01 11:16:36;;;;;;;7.15;4.35;;;9.00;73.60;;;;;;5114979;28;20522;-81
2021/03/01 11:19:03;;;;;;;7.72;3.80;;;9.10;72.60;;;;;;5097146;28;20047;-81
2021/03/01 11:21:29;;;;;;;7.97;4.38;;;9.20;71.60;;;;;;5096831;28;20054;-81
2021/03/01 11:23:56;;;;;;;7.28;4.07;;;9.30;70.60;;;;;;5115160;28;20046;-81
2021/03/01 11:26:23;;;;;;;7.18;3.67;;;9.40;68.80;;;;;;5114704;28;20130;-81
2021/03/01 11:28:50;;;;;;;5.82;3.47;;;9.50;67.80;;;;;;5114478;28;20147;-81
2021/03/01 11:31:17;;;;;;;5.57;2.97;;;9.60;66.40;;;;;;5097148;28;20127;-81
2021/03/01 11:33:44;;;;;;;6.38;3.42;;;9.60;64.60;;;;;;5114516;28;20044;-82
2021/03/01 11:36:12;;;;;;;6.03;2.42;;;9.80;62.00;;;;;;5096702;28;20122;-81
2021/03/01 11:38:39;;;;;;;6.07;2.70;;;9.90;60.20;;;;;;5114544;28;20062;-81
2021/03/01 11:41:06;;;;;;;7.30;3.58;;;10.10;59.20;;;;;;5113753;28;20126;-82
2021/03/01 11:43:33;;;;;;;5.18;2.38;;;10.30;58.20;;;;;;5096593;28;20130;-82
2021/03/01 11:46:00;;;;;;;5.07;2.70;;;10.40;57.40;;;;;;5114943;28;20071;-82
2021/03/01 11:48:27;;;;;;;4.00;1.98;;;10.50;55.40;;;;;;5114423;28;20142;-81
2021/03/01 11:50:54;;;;;;;4.47;2.22;;;10.70;53.80;;;;;;5114565;28;20139;-81
2021/03/01 11:53:21;;;;;;;3.58;1.90;;;10.80;50.40;;;;;;5096124;28;20130;-81
2021/03/01 11:55:48;;;;;;;4.18;2.15;;;11.00;49.50;;;;;;5096385;28;20054;-81
2021/03/01 11:58:15;;;;;;;4.22;2.03;;;11.20;48.30;;;;;;5096112;28;20138;-80
2021/03/01 12:00:42;;;;;;;5.03;2.00;;;11.30;47.60;;;;;;5113921;28;20050;-80
2021/03/01 12:03:10;;;;;;;5.55;2.20;;;11.50;46.70;;;;;;5114417;28;20051;-81
2021/03/01 12:05:39;;;;;;;4.97;2.20;;;11.60;46.70;;;;;;5113835;28;20067;-81
2021/03/01 12:08:09;;;;;;;4.60;2.30;;;11.80;45.90;;;;;;5095874;28;20510;-81
2021/03/01 12:10:37;;;;;;;3.97;1.90;;;11.90;46.40;;;;;;5113571;28;20119;-81
2021/03/01 12:13:05;;;;;;;4.15;2.00;;;12.00;46.20;;;;;;5102902;28;20047;-80
2021/03/01 12:15:32;;;;;;;4.72;2.85;;;12.20;46.00;;;;;;5114158;28;20044;-81
2021/03/01 12:17:59;;;;;;;3.70;1.67;;;12.40;44.70;;;;;;5113266;28;20071;-81
2021/03/01 12:20:26;;;;;;;3.83;1.90;;;12.50;44.80;;;;;;5113673;28;20501;-81
2021/03/01 12:22:53;;;;;;;3.40;1.63;;;12.60;45.00;;;;;;5113792;28;20477;-81
2021/03/01 12:25:21;;;;;;;3.63;2.00;;;12.80;45.00;;;;;;5114097;28;20441;-81
2021/03/01 12:27:47;;;;;;;4.50;2.58;;;12.90;44.80;;;;;;5113400;28;20130;-81
2021/03/01 12:30:15;;;;;;;4.38;2.13;;;13.10;43.90;;;;;;5113763;28;20145;-81
2021/03/01 12:32:42;;;;;;;5.70;2.88;;;13.10;43.50;;;;;;5101115;28;20055;-81
2021/03/01 12:35:10;;;;;;;5.13;2.20;;;13.30;43.50;;;;;;5117870;28;20146;-81
2021/03/01 12:37:37;;;;;;;4.53;2.33;;;13.50;43.70;;;;;;5114292;28;20560;-81
2021/03/01 12:40:05;;;;;;;4.65;2.08;;;13.60;43.90;;;;;;5113369;28;20474;-81
2021/03/01 12:42:33;;;;;;;3.97;2.08;;;13.80;43.80;;;;;;5112722;28;20043;-80
2021/03/01 12:45:01;;;;;;;4.28;1.80;;;13.90;43.80;;;;;;5112531;28;20134;-82
2021/03/01 12:47:28;;;;;;;4.65;2.33;;;14.10;43.40;;;;;;5113306;28;20052;-81
2021/03/01 12:49:54;;;;;;;4.45;2.75;;;14.30;43.20;;;;;;5116764;28;20079;-81
2021/03/01 12:52:21;;;;;;;4.60;2.47;;;14.40;42.20;;;;;;5116310;28;20052;-81
2021/03/01 12:54:48;;;;;;;4.78;2.75;;;14.60;42.40;;;;;;5119691;28;20111;-81
2021/03/01 12:57:15;;;;;;;4.43;2.40;;;14.70;43.40;;;;;;5115191;28;20313;-82
2021/03/01 12:59:43;;;;;;;4.13;2.08;;;14.80;42.40;;;;;;5114906;28;20082;-81
2021/03/01 13:02:09;;;;;;;7.03;3.00;;;14.90;42.80;;;;;;5120006;28;20083;-81
2021/03/01 13:04:36;;;;;;;4.25;2.50;;;15.00;42.20;;;;;;5119552;28;20075;-81